sensor_id;sensor_type;location;lat;lon;timestamp;P1;durP1;ratioP1;P2;durP2;ratioP2
28455;SDS011;15682;56.742;38.866;2022-08-07T00:00:26;17.7;;;9.7;;
28455;SDS011;15682;56.742;38.866;2022-08-07T00:02:26;14.9;;;9.4;;
28455;SDS011;15682;56.742;38.866;2022-08-07T00:04:27;12.9;;;9.5;;
28455;SDS011;15682;56.742;38.866;2022-08-07T00:06:27;13.7;;;10.2;;
28455;SDS011;15682;56.742;38.866;2022-08-07T00:08:28;13.9;;;9.7;;
28455;SDS011;15682;56.742;38.866;2022-08-07T00:10:28;15.4;;;9.8;;
28455;SDS011;15682;56.742;38.866;2022-08-07T00:12:29;15.9;;;9.4;;
28455;SDS011;15682;56.742;38.866;2022-08-07T00:14:29;15.9;;;9.5;;
28455;SDS011;15682;56.742;38.866;2022-08-07T00:16:29;17.3;;;9.8;;
28455;SDS011;15682;56.742;38.866;2022-08-07T00:18:30;20.4;;;9.8;;
28455;SDS011;15682;56.742;38.866;2022-08-07T00:20:30;15.7;;;9.6;;
28455;SDS011;15682;56.742;38.866;2022-08-07T00:22:30;15.5;;;9.7;;
28455;SDS011;15682;56.742;38.866;2022-08-07T00:24:31;14.4;;;9.7;;
28455;SDS011;15682;56.742;38.866;2022-08-07T00:26:31;14.5;;;9.8;;
28455;SDS011;15682;56.742;38.866;2022-08-07T00:28:32;17.4;;;9.8;;
28455;SDS011;15682;56.742;38.866;2022-08-07T00:30:32;15.1;;;10.3;;
28455;SDS011;15682;56.742;38.866;2022-08-07T00:32:32;13.0;;;9.3;;
28455;SDS011;15682;56.742;38.866;2022-08-07T00:34:33;15.9;;;9.9;;
28455;SDS011;15682;56.742;38.866;2022-08-07T00:36:33;15.2;;;9.4;;
28455;SDS011;15682;56.742;38.866;2022-08-07T00:38:34;17.9;;;9.6;;
28455;SDS011;15682;56.742;38.866;2022-08-07T00:40:34;13.7;;;10.0;;
28455;SDS011;15682;56.742;38.866;2022-08-07T00:42:34;14.9;;;9.6;;
28455;SDS011;15682;56.742;38.866;2022-08-07T00:44:35;16.2;;;9.6;;
28455;SDS011;15682;56.742;38.866;2022-08-07T00:46:35;15.7;;;9.6;;
28455;SDS011;15682;56.742;38.866;2022-08-07T00:48:35;13.7;;;10.0;;
28455;SDS011;15682;56.742;38.866;2022-08-07T00:50:36;16.8;;;10.1;;
28455;SDS011;15682;56.742;38.866;2022-08-07T00:52:36;18.0;;;10.0;;
28455;SDS011;15682;56.742;38.866;2022-08-07T00:54:36;16.4;;;9.5;;
28455;SDS011;15682;56.742;38.866;2022-08-07T00:56:37;17.6;;;9.4;;
28455;SDS011;15682;56.742;38.866;2022-08-07T00:58:40;20.8;;;10.0;;
28455;SDS011;15682;56.742;38.866;2022-08-07T01:00:38;15.7;;;10.0;;
28455;SDS011;15682;56.742;38.866;2022-08-07T01:02:38;14.5;;;9.6;;
28455;SDS011;15682;56.742;38.866;2022-08-07T01:04:39;15.4;;;10.1;;
28455;SDS011;15682;56.742;38.866;2022-08-07T01:06:39;18.0;;;10.3;;
28455;SDS011;15682;56.742;38.866;2022-08-07T01:08:39;16.5;;;10.1;;
28455;SDS011;15682;56.742;38.866;2022-08-07T01:10:39;16.3;;;10.0;;
28455;SDS011;15682;56.742;38.866;2022-08-07T01:12:41;18.8;;;10.1;;
28455;SDS011;15682;56.742;38.866;2022-08-07T01:14:40;15.8;;;9.8;;
28455;SDS011;15682;56.742;38.866;2022-08-07T01:16:41;17.5;;;10.2;;
28455;SDS011;15682;56.742;38.866;2022-08-07T01:18:41;16.2;;;10.0;;
28455;SDS011;15682;56.742;38.866;2022-08-07T01:20:43;19.8;;;10.2;;
28455;SDS011;15682;56.742;38.866;2022-08-07T01:22:42;16.3;;;10.4;;
28455;SDS011;15682;56.742;38.866;2022-08-07T01:24:42;16.0;;;10.6;;
28455;SDS011;15682;56.742;38.866;2022-08-07T01:26:42;17.8;;;10.5;;
28455;SDS011;15682;56.742;38.866;2022-08-07T01:28:43;13.3;;;10.1;;
28455;SDS011;15682;56.742;38.866;2022-08-07T01:30:43;17.8;;;10.5;;
28455;SDS011;15682;56.742;38.866;2022-08-07T01:32:43;17.4;;;10.1;;
28455;SDS011;15682;56.742;38.866;2022-08-07T01:34:44;18.1;;;9.9;;
28455;SDS011;15682;56.742;38.866;2022-08-07T01:36:44;15.5;;;10.4;;
28455;SDS011;15682;56.742;38.866;2022-08-07T01:38:44;18.3;;;9.8;;
28455;SDS011;15682;56.742;38.866;2022-08-07T01:40:45;20.7;;;10.5;;
28455;SDS011;15682;56.742;38.866;2022-08-07T01:42:45;15.6;;;10.3;;
28455;SDS011;15682;56.742;38.866;2022-08-07T01:44:46;16.4;;;10.2;;
28455;SDS011;15682;56.742;38.866;2022-08-07T01:46:46;17.5;;;10.4;;
28455;SDS011;15682;56.742;38.866;2022-08-07T01:48:47;18.4;;;10.6;;
28455;SDS011;15682;56.742;38.866;2022-08-07T01:50:48;16.7;;;10.3;;
28455;SDS011;15682;56.742;38.866;2022-08-07T01:52:47;16.0;;;10.3;;
28455;SDS011;15682;56.742;38.866;2022-08-07T01:54:48;13.9;;;10.1;;
28455;SDS011;15682;56.742;38.866;2022-08-07T01:56:50;15.8;;;10.2;;
28455;SDS011;15682;56.742;38.866;2022-08-07T01:58:50;15.1;;;10.6;;
28455;SDS011;15682;56.742;38.866;2022-08-07T02:00:50;15.9;;;10.4;;
28455;SDS011;15682;56.742;38.866;2022-08-07T02:02:49;16.9;;;10.6;;
28455;SDS011;15682;56.742;38.866;2022-08-07T02:04:52;22.6;;;11.0;;
28455;SDS011;15682;56.742;38.866;2022-08-07T02:06:50;16.8;;;10.7;;
28455;SDS011;15682;56.742;38.866;2022-08-07T02:08:50;16.6;;;11.2;;
28455;SDS011;15682;56.742;38.866;2022-08-07T02:10:51;16.3;;;10.8;;
28455;SDS011;15682;56.742;38.866;2022-08-07T02:12:51;16.4;;;10.9;;
28455;SDS011;15682;56.742;38.866;2022-08-07T02:14:52;15.4;;;10.9;;
28455;SDS011;15682;56.742;38.866;2022-08-07T02:16:52;20.2;;;11.5;;
28455;SDS011;15682;56.742;38.866;2022-08-07T02:18:52;18.9;;;10.9;;
28455;SDS011;15682;56.742;38.866;2022-08-07T02:20:53;21.5;;;11.5;;
28455;SDS011;15682;56.742;38.866;2022-08-07T02:22:54;17.7;;;11.4;;
28455;SDS011;15682;56.742;38.866;2022-08-07T02:24:53;18.6;;;11.5;;
28455;SDS011;15682;56.742;38.866;2022-08-07T02:26:54;17.9;;;11.3;;
28455;SDS011;15682;56.742;38.866;2022-08-07T02:28:54;18.3;;;11.1;;
28455;SDS011;15682;56.742;38.866;2022-08-07T02:30:54;22.6;;;11.1;;
28455;SDS011;15682;56.742;38.866;2022-08-07T02:32:55;16.9;;;11.4;;
28455;SDS011;15682;56.742;38.866;2022-08-07T02:34:56;21.6;;;11.7;;
28455;SDS011;15682;56.742;38.866;2022-08-07T02:36:56;18.3;;;11.6;;
28455;SDS011;15682;56.742;38.866;2022-08-07T02:38:56;20.2;;;11.4;;
28455;SDS011;15682;56.742;38.866;2022-08-07T02:40:56;20.9;;;11.7;;
28455;SDS011;15682;56.742;38.866;2022-08-07T02:42:57;18.4;;;11.2;;
28455;SDS011;15682;56.742;38.866;2022-08-07T02:44:57;16.7;;;11.3;;
28455;SDS011;15682;56.742;38.866;2022-08-07T02:46:58;18.4;;;11.6;;
28455;SDS011;15682;56.742;38.866;2022-08-07T02:48:58;16.3;;;11.4;;
28455;SDS011;15682;56.742;38.866;2022-08-07T02:50:59;20.4;;;11.3;;
28455;SDS011;15682;56.742;38.866;2022-08-07T02:53:00;18.5;;;11.0;;
28455;SDS011;15682;56.742;38.866;2022-08-07T02:55:00;18.7;;;11.5;;
28455;SDS011;15682;56.742;38.866;2022-08-07T02:57:00;19.3;;;11.3;;
28455;SDS011;15682;56.742;38.866;2022-08-07T02:59:01;19.8;;;11.8;;
28455;SDS011;15682;56.742;38.866;2022-08-07T03:01:00;16.5;;;12.0;;
28455;SDS011;15682;56.742;38.866;2022-08-07T03:03:00;23.4;;;11.8;;
28455;SDS011;15682;56.742;38.866;2022-08-07T03:05:01;21.9;;;12.1;;
28455;SDS011;15682;56.742;38.866;2022-08-07T03:07:01;19.6;;;11.4;;
28455;SDS011;15682;56.742;38.866;2022-08-07T03:09:02;18.5;;;12.0;;
28455;SDS011;15682;56.742;38.866;2022-08-07T03:11:02;17.1;;;11.4;;
28455;SDS011;15682;56.742;38.866;2022-08-07T03:13:02;21.4;;;11.9;;
28455;SDS011;15682;56.742;38.866;2022-08-07T03:15:03;16.3;;;11.6;;
28455;SDS011;15682;56.742;38.866;2022-08-07T03:17:04;21.7;;;11.7;;
28455;SDS011;15682;56.742;38.866;2022-08-07T03:19:03;17.1;;;11.2;;
28455;SDS011;15682;56.742;38.866;2022-08-07T03:21:04;18.9;;;11.5;;
28455;SDS011;15682;56.742;38.866;2022-08-07T03:23:04;18.2;;;11.1;;
28455;SDS011;15682;56.742;38.866;2022-08-07T03:25:05;20.1;;;11.0;;
28455;SDS011;15682;56.742;38.866;2022-08-07T03:27:05;19.7;;;10.9;;
28455;SDS011;15682;56.742;38.866;2022-08-07T03:29:06;18.8;;;11.2;;
28455;SDS011;15682;56.742;38.866;2022-08-07T03:31:06;22.6;;;11.2;;
28455;SDS011;15682;56.742;38.866;2022-08-07T03:33:06;18.8;;;10.8;;
28455;SDS011;15682;56.742;38.866;2022-08-07T03:35:08;18.3;;;11.0;;
28455;SDS011;15682;56.742;38.866;2022-08-07T03:37:07;15.1;;;10.7;;
28455;SDS011;15682;56.742;38.866;2022-08-07T03:39:08;26.3;;;10.9;;
28455;SDS011;15682;56.742;38.866;2022-08-07T03:41:08;19.8;;;11.1;;
28455;SDS011;15682;56.742;38.866;2022-08-07T03:43:09;17.8;;;11.5;;
28455;SDS011;15682;56.742;38.866;2022-08-07T03:45:09;18.5;;;11.2;;
28455;SDS011;15682;56.742;38.866;2022-08-07T03:47:10;19.2;;;11.4;;
28455;SDS011;15682;56.742;38.866;2022-08-07T03:49:10;19.2;;;11.0;;
28455;SDS011;15682;56.742;38.866;2022-08-07T03:51:11;19.9;;;11.7;;
28455;SDS011;15682;56.742;38.866;2022-08-07T03:53:11;22.3;;;11.7;;
28455;SDS011;15682;56.742;38.866;2022-08-07T03:55:11;19.2;;;11.4;;
28455;SDS011;15682;56.742;38.866;2022-08-07T03:57:12;22.5;;;11.2;;
28455;SDS011;15682;56.742;38.866;2022-08-07T03:59:12;21.3;;;11.5;;
28455;SDS011;15682;56.742;38.866;2022-08-07T04:01:13;22.6;;;11.3;;
28455;SDS011;15682;56.742;38.866;2022-08-07T04:03:13;20.8;;;11.4;;
28455;SDS011;15682;56.742;38.866;2022-08-07T04:05:14;17.7;;;10.7;;
28455;SDS011;15682;56.742;38.866;2022-08-07T04:07:15;20.8;;;10.9;;
28455;SDS011;15682;56.742;38.866;2022-08-07T04:09:15;18.9;;;11.2;;
28455;SDS011;15682;56.742;38.866;2022-08-07T04:11:16;18.4;;;11.5;;
28455;SDS011;15682;56.742;38.866;2022-08-07T04:13:16;18.0;;;11.2;;
28455;SDS011;15682;56.742;38.866;2022-08-07T04:15:17;22.7;;;11.2;;
28455;SDS011;15682;56.742;38.866;2022-08-07T04:17:17;19.3;;;11.3;;
28455;SDS011;15682;56.742;38.866;2022-08-07T04:19:18;18.6;;;10.5;;
28455;SDS011;15682;56.742;38.866;2022-08-07T04:21:19;24.5;;;10.6;;
28455;SDS011;15682;56.742;38.866;2022-08-07T04:23:19;20.3;;;10.6;;
28455;SDS011;15682;56.742;38.866;2022-08-07T04:25:20;15.9;;;10.4;;
28455;SDS011;15682;56.742;38.866;2022-08-07T04:27:21;18.1;;;10.5;;
28455;SDS011;15682;56.742;38.866;2022-08-07T04:29:21;19.6;;;10.6;;
28455;SDS011;15682;56.742;38.866;2022-08-07T04:31:22;19.9;;;9.8;;
28455;SDS011;15682;56.742;38.866;2022-08-07T04:33:23;20.6;;;10.6;;
28455;SDS011;15682;56.742;38.866;2022-08-07T04:35:23;22.0;;;9.9;;
28455;SDS011;15682;56.742;38.866;2022-08-07T04:37:24;20.5;;;10.8;;
28455;SDS011;15682;56.742;38.866;2022-08-07T04:39:24;22.0;;;10.0;;
28455;SDS011;15682;56.742;38.866;2022-08-07T04:41:25;21.6;;;10.1;;
28455;SDS011;15682;56.742;38.866;2022-08-07T04:43:26;18.5;;;10.0;;
28455;SDS011;15682;56.742;38.866;2022-08-07T04:45:28;26.8;;;10.1;;
28455;SDS011;15682;56.742;38.866;2022-08-07T04:47:29;23.8;;;9.5;;
28455;SDS011;15682;56.742;38.866;2022-08-07T04:49:29;17.2;;;10.1;;
28455;SDS011;15682;56.742;38.866;2022-08-07T04:51:34;22.5;;;9.5;;
28455;SDS011;15682;56.742;38.866;2022-08-07T04:53:36;20.3;;;9.6;;
28455;SDS011;15682;56.742;38.866;2022-08-07T04:55:31;21.2;;;9.8;;
28455;SDS011;15682;56.742;38.866;2022-08-07T04:57:31;18.8;;;10.2;;
28455;SDS011;15682;56.742;38.866;2022-08-07T04:59:32;20.0;;;10.0;;
28455;SDS011;15682;56.742;38.866;2022-08-07T05:01:36;19.5;;;9.5;;
28455;SDS011;15682;56.742;38.866;2022-08-07T05:03:34;21.3;;;9.6;;
28455;SDS011;15682;56.742;38.866;2022-08-07T05:05:34;21.0;;;9.5;;
28455;SDS011;15682;56.742;38.866;2022-08-07T05:07:35;17.5;;;9.7;;
28455;SDS011;15682;56.742;38.866;2022-08-07T05:09:37;17.3;;;9.2;;
28455;SDS011;15682;56.742;38.866;2022-08-07T05:11:38;18.6;;;9.5;;
28455;SDS011;15682;56.742;38.866;2022-08-07T05:13:38;14.7;;;9.4;;
28455;SDS011;15682;56.742;38.866;2022-08-07T05:15:38;19.9;;;9.2;;
28455;SDS011;15682;56.742;38.866;2022-08-07T05:17:37;20.0;;;9.1;;
28455;SDS011;15682;56.742;38.866;2022-08-07T05:19:39;19.5;;;9.6;;
28455;SDS011;15682;56.742;38.866;2022-08-07T05:21:39;18.2;;;9.4;;
28455;SDS011;15682;56.742;38.866;2022-08-07T05:23:40;23.5;;;9.6;;
28455;SDS011;15682;56.742;38.866;2022-08-07T05:25:41;19.9;;;9.0;;
28455;SDS011;15682;56.742;38.866;2022-08-07T05:27:41;13.8;;;8.7;;
28455;SDS011;15682;56.742;38.866;2022-08-07T05:29:42;15.8;;;8.6;;
28455;SDS011;15682;56.742;38.866;2022-08-07T05:31:43;19.6;;;9.1;;
28455;SDS011;15682;56.742;38.866;2022-08-07T05:33:43;14.5;;;8.8;;
28455;SDS011;15682;56.742;38.866;2022-08-07T05:35:44;19.9;;;8.8;;
28455;SDS011;15682;56.742;38.866;2022-08-07T05:37:45;13.9;;;8.3;;
28455;SDS011;15682;56.742;38.866;2022-08-07T05:39:45;18.2;;;8.5;;
28455;SDS011;15682;56.742;38.866;2022-08-07T05:41:46;22.0;;;8.4;;
28455;SDS011;15682;56.742;38.866;2022-08-07T05:43:48;16.5;;;8.2;;
28455;SDS011;15682;56.742;38.866;2022-08-07T05:45:48;15.1;;;8.2;;
28455;SDS011;15682;56.742;38.866;2022-08-07T05:47:48;21.2;;;8.5;;
28455;SDS011;15682;56.742;38.866;2022-08-07T05:49:49;16.5;;;8.3;;
28455;SDS011;15682;56.742;38.866;2022-08-07T05:51:50;19.3;;;7.9;;
28455;SDS011;15682;56.742;38.866;2022-08-07T05:53:51;18.8;;;8.2;;
28455;SDS011;15682;56.742;38.866;2022-08-07T05:55:52;16.3;;;8.1;;
28455;SDS011;15682;56.742;38.866;2022-08-07T05:57:52;17.0;;;8.0;;
28455;SDS011;15682;56.742;38.866;2022-08-07T05:59:53;18.8;;;7.9;;
28455;SDS011;15682;56.742;38.866;2022-08-07T06:01:54;24.0;;;8.7;;
28455;SDS011;15682;56.742;38.866;2022-08-07T06:03:55;17.4;;;7.7;;
28455;SDS011;15682;56.742;38.866;2022-08-07T06:05:55;17.1;;;7.9;;
28455;SDS011;15682;56.742;38.866;2022-08-07T06:07:57;21.2;;;7.8;;
28455;SDS011;15682;56.742;38.866;2022-08-07T06:09:57;34.8;;;8.8;;
28455;SDS011;15682;56.742;38.866;2022-08-07T06:11:58;15.7;;;7.4;;
28455;SDS011;15682;56.742;38.866;2022-08-07T06:13:58;18.7;;;7.7;;
28455;SDS011;15682;56.742;38.866;2022-08-07T06:15:59;17.0;;;7.1;;
28455;SDS011;15682;56.742;38.866;2022-08-07T06:18:00;21.3;;;7.8;;
28455;SDS011;15682;56.742;38.866;2022-08-07T06:20:01;21.1;;;7.5;;
28455;SDS011;15682;56.742;38.866;2022-08-07T06:22:02;20.2;;;7.6;;
28455;SDS011;15682;56.742;38.866;2022-08-07T06:24:02;20.8;;;6.8;;
28455;SDS011;15682;56.742;38.866;2022-08-07T06:26:03;15.8;;;6.4;;
28455;SDS011;15682;56.742;38.866;2022-08-07T06:28:05;20.5;;;6.7;;
28455;SDS011;15682;56.742;38.866;2022-08-07T06:30:05;17.4;;;6.1;;
28455;SDS011;15682;56.742;38.866;2022-08-07T06:32:06;13.6;;;5.5;;
28455;SDS011;15682;56.742;38.866;2022-08-07T06:34:06;13.1;;;5.7;;
28455;SDS011;15682;56.742;38.866;2022-08-07T06:36:08;12.1;;;6.0;;
28455;SDS011;15682;56.742;38.866;2022-08-07T06:38:08;14.2;;;5.5;;
28455;SDS011;15682;56.742;38.866;2022-08-07T06:40:09;22.8;;;6.2;;
28455;SDS011;15682;56.742;38.866;2022-08-07T06:42:12;56.8;;;7.8;;
28455;SDS011;15682;56.742;38.866;2022-08-07T06:44:11;14.1;;;5.3;;
28455;SDS011;15682;56.742;38.866;2022-08-07T06:46:11;11.6;;;5.9;;
28455;SDS011;15682;56.742;38.866;2022-08-07T06:48:12;15.8;;;5.4;;
28455;SDS011;15682;56.742;38.866;2022-08-07T06:50:13;19.9;;;5.5;;
28455;SDS011;15682;56.742;38.866;2022-08-07T06:52:14;14.1;;;4.6;;
28455;SDS011;15682;56.742;38.866;2022-08-07T06:54:15;12.6;;;4.7;;
28455;SDS011;15682;56.742;38.866;2022-08-07T06:56:16;11.4;;;5.0;;
28455;SDS011;15682;56.742;38.866;2022-08-07T06:58:16;17.8;;;5.3;;
28455;SDS011;15682;56.742;38.866;2022-08-07T07:00:17;15.6;;;4.6;;
28455;SDS011;15682;56.742;38.866;2022-08-07T07:02:19;16.1;;;4.4;;
28455;SDS011;15682;56.742;38.866;2022-08-07T07:04:19;11.3;;;4.3;;
28455;SDS011;15682;56.742;38.866;2022-08-07T07:06:20;12.5;;;4.3;;
28455;SDS011;15682;56.742;38.866;2022-08-07T07:08:23;23.5;;;4.7;;
28455;SDS011;15682;56.742;38.866;2022-08-07T07:10:26;14.4;;;4.5;;
28455;SDS011;15682;56.742;38.866;2022-08-07T07:12:29;13.5;;;4.2;;
28455;SDS011;15682;56.742;38.866;2022-08-07T07:14:23;16.5;;;4.2;;
28455;SDS011;15682;56.742;38.866;2022-08-07T07:16:24;18.4;;;4.6;;
28455;SDS011;15682;56.742;38.866;2022-08-07T07:18:27;13.4;;;4.3;;
28455;SDS011;15682;56.742;38.866;2022-08-07T07:20:26;23.8;;;4.6;;
28455;SDS011;15682;56.742;38.866;2022-08-07T07:22:27;29.8;;;5.2;;
28455;SDS011;15682;56.742;38.866;2022-08-07T07:24:27;17.4;;;4.3;;
28455;SDS011;15682;56.742;38.866;2022-08-07T07:26:29;13.1;;;4.4;;
28455;SDS011;15682;56.742;38.866;2022-08-07T07:28:31;11.7;;;4.4;;
28455;SDS011;15682;56.742;38.866;2022-08-07T07:30:31;15.6;;;4.8;;
28455;SDS011;15682;56.742;38.866;2022-08-07T07:32:31;17.7;;;4.8;;
28455;SDS011;15682;56.742;38.866;2022-08-07T07:34:31;21.8;;;4.7;;
28455;SDS011;15682;56.742;38.866;2022-08-07T07:36:32;14.7;;;4.3;;
28455;SDS011;15682;56.742;38.866;2022-08-07T07:38:33;17.4;;;4.7;;
28455;SDS011;15682;56.742;38.866;2022-08-07T07:40:34;10.9;;;3.9;;
28455;SDS011;15682;56.742;38.866;2022-08-07T07:42:34;15.4;;;4.2;;
28455;SDS011;15682;56.742;38.866;2022-08-07T07:44:35;13.1;;;4.3;;
28455;SDS011;15682;56.742;38.866;2022-08-07T07:46:36;13.9;;;4.6;;
28455;SDS011;15682;56.742;38.866;2022-08-07T07:48:37;13.5;;;3.8;;
28455;SDS011;15682;56.742;38.866;2022-08-07T07:50:37;12.3;;;4.2;;
28455;SDS011;15682;56.742;38.866;2022-08-07T07:52:38;13.5;;;4.1;;
28455;SDS011;15682;56.742;38.866;2022-08-07T07:54:39;16.3;;;4.4;;
28455;SDS011;15682;56.742;38.866;2022-08-07T07:56:40;15.5;;;4.1;;
28455;SDS011;15682;56.742;38.866;2022-08-07T07:58:40;21.2;;;4.3;;
28455;SDS011;15682;56.742;38.866;2022-08-07T08:00:41;18.0;;;4.4;;
28455;SDS011;15682;56.742;38.866;2022-08-07T08:02:42;13.4;;;3.9;;
28455;SDS011;15682;56.742;38.866;2022-08-07T08:04:43;10.4;;;4.2;;
28455;SDS011;15682;56.742;38.866;2022-08-07T08:06:44;25.8;;;7.0;;
28455;SDS011;15682;56.742;38.866;2022-08-07T08:08:44;10.2;;;4.2;;
28455;SDS011;15682;56.742;38.866;2022-08-07T08:10:45;18.2;;;4.4;;
28455;SDS011;15682;56.742;38.866;2022-08-07T08:12:46;13.2;;;4.2;;
28455;SDS011;15682;56.742;38.866;2022-08-07T08:14:46;15.2;;;4.4;;
28455;SDS011;15682;56.742;38.866;2022-08-07T08:16:47;22.0;;;4.6;;
28455;SDS011;15682;56.742;38.866;2022-08-07T08:18:48;16.0;;;4.4;;
28455;SDS011;15682;56.742;38.866;2022-08-07T08:20:49;11.9;;;4.4;;
28455;SDS011;15682;56.742;38.866;2022-08-07T08:22:50;15.4;;;4.5;;
28455;SDS011;15682;56.742;38.866;2022-08-07T08:24:51;14.9;;;4.4;;
28455;SDS011;15682;56.742;38.866;2022-08-07T08:26:52;13.4;;;4.6;;
28455;SDS011;15682;56.742;38.866;2022-08-07T08:28:52;23.3;;;5.4;;
28455;SDS011;15682;56.742;38.866;2022-08-07T08:30:53;20.3;;;4.8;;
28455;SDS011;15682;56.742;38.866;2022-08-07T08:32:55;20.8;;;5.1;;
28455;SDS011;15682;56.742;38.866;2022-08-07T08:34:54;15.7;;;4.5;;
28455;SDS011;15682;56.742;38.866;2022-08-07T08:36:55;18.4;;;4.7;;
28455;SDS011;15682;56.742;38.866;2022-08-07T08:38:56;41.3;;;5.5;;
28455;SDS011;15682;56.742;38.866;2022-08-07T08:40:57;21.8;;;4.6;;
28455;SDS011;15682;56.742;38.866;2022-08-07T08:42:59;13.5;;;4.4;;
28455;SDS011;15682;56.742;38.866;2022-08-07T08:45:02;15.7;;;5.0;;
28455;SDS011;15682;56.742;38.866;2022-08-07T08:47:01;18.1;;;5.0;;
28455;SDS011;15682;56.742;38.866;2022-08-07T08:49:03;17.9;;;5.0;;
28455;SDS011;15682;56.742;38.866;2022-08-07T08:51:01;16.2;;;5.4;;
28455;SDS011;15682;56.742;38.866;2022-08-07T08:53:02;16.1;;;5.4;;
28455;SDS011;15682;56.742;38.866;2022-08-07T08:55:03;19.8;;;5.7;;
28455;SDS011;15682;56.742;38.866;2022-08-07T08:57:04;15.9;;;5.1;;
28455;SDS011;15682;56.742;38.866;2022-08-07T08:59:05;21.7;;;6.1;;
28455;SDS011;15682;56.742;38.866;2022-08-07T09:01:06;14.1;;;5.0;;
28455;SDS011;15682;56.742;38.866;2022-08-07T09:03:05;15.4;;;5.3;;
28455;SDS011;15682;56.742;38.866;2022-08-07T09:05:11;13.1;;;5.5;;
28455;SDS011;15682;56.742;38.866;2022-08-07T09:07:07;14.8;;;5.0;;
28455;SDS011;15682;56.742;38.866;2022-08-07T09:09:09;13.1;;;4.9;;
28455;SDS011;15682;56.742;38.866;2022-08-07T09:11:10;16.1;;;5.5;;
28455;SDS011;15682;56.742;38.866;2022-08-07T09:13:09;18.4;;;5.7;;
28455;SDS011;15682;56.742;38.866;2022-08-07T09:15:14;18.1;;;6.3;;
28455;SDS011;15682;56.742;38.866;2022-08-07T09:17:11;18.0;;;6.7;;
28455;SDS011;15682;56.742;38.866;2022-08-07T09:19:14;18.5;;;7.0;;
28455;SDS011;15682;56.742;38.866;2022-08-07T09:21:15;21.9;;;7.2;;
28455;SDS011;15682;56.742;38.866;2022-08-07T09:23:12;18.5;;;7.1;;
28455;SDS011;15682;56.742;38.866;2022-08-07T09:25:14;15.9;;;6.7;;
28455;SDS011;15682;56.742;38.866;2022-08-07T09:27:18;22.3;;;7.0;;
28455;SDS011;15682;56.742;38.866;2022-08-07T09:29:18;15.1;;;7.3;;
28455;SDS011;15682;56.742;38.866;2022-08-07T09:31:15;13.9;;;7.2;;
28455;SDS011;15682;56.742;38.866;2022-08-07T09:33:20;18.4;;;7.3;;
28455;SDS011;15682;56.742;38.866;2022-08-07T09:35:18;16.5;;;7.4;;
28455;SDS011;15682;56.742;38.866;2022-08-07T09:37:18;16.9;;;7.3;;
28455;SDS011;15682;56.742;38.866;2022-08-07T09:39:21;17.0;;;7.4;;
28455;SDS011;15682;56.742;38.866;2022-08-07T09:41:21;16.5;;;7.7;;
28455;SDS011;15682;56.742;38.866;2022-08-07T09:43:21;14.5;;;7.3;;
28455;SDS011;15682;56.742;38.866;2022-08-07T09:45:19;13.9;;;6.8;;
28455;SDS011;15682;56.742;38.866;2022-08-07T09:47:22;14.9;;;6.8;;
28455;SDS011;15682;56.742;38.866;2022-08-07T09:49:27;16.1;;;7.2;;
28455;SDS011;15682;56.742;38.866;2022-08-07T09:51:28;16.0;;;7.0;;
28455;SDS011;15682;56.742;38.866;2022-08-07T09:53:21;15.1;;;7.0;;
28455;SDS011;15682;56.742;38.866;2022-08-07T09:55:23;13.2;;;7.0;;
28455;SDS011;15682;56.742;38.866;2022-08-07T09:57:29;16.3;;;7.8;;
28455;SDS011;15682;56.742;38.866;2022-08-07T09:59:29;20.2;;;7.6;;
28455;SDS011;15682;56.742;38.866;2022-08-07T10:01:31;20.0;;;8.6;;
28455;SDS011;15682;56.742;38.866;2022-08-07T10:03:30;21.5;;;7.0;;
28455;SDS011;15682;56.742;38.866;2022-08-07T10:05:35;41.9;;;8.5;;
28455;SDS011;15682;56.742;38.866;2022-08-07T10:07:33;78.7;;;8.5;;
28455;SDS011;15682;56.742;38.866;2022-08-07T10:09:29;69.9;;;6.8;;
28455;SDS011;15682;56.742;38.866;2022-08-07T10:11:31;29.8;;;5.6;;
28455;SDS011;15682;56.742;38.866;2022-08-07T10:13:33;25.2;;;5.0;;
28455;SDS011;15682;56.742;38.866;2022-08-07T10:15:45;31.8;;;6.4;;
28455;SDS011;15682;56.742;38.866;2022-08-07T10:17:33;43.1;;;7.3;;
28455;SDS011;15682;56.742;38.866;2022-08-07T10:19:34;24.0;;;6.2;;
28455;SDS011;15682;56.742;38.866;2022-08-07T10:21:33;24.7;;;6.2;;
28455;SDS011;15682;56.742;38.866;2022-08-07T10:23:36;24.2;;;5.8;;
28455;SDS011;15682;56.742;38.866;2022-08-07T10:25:35;15.5;;;5.1;;
28455;SDS011;15682;56.742;38.866;2022-08-07T10:27:38;15.2;;;4.7;;
28455;SDS011;15682;56.742;38.866;2022-08-07T10:29:37;13.0;;;4.9;;
28455;SDS011;15682;56.742;38.866;2022-08-07T10:31:46;19.4;;;5.7;;
28455;SDS011;15682;56.742;38.866;2022-08-07T10:33:40;17.4;;;6.0;;
28455;SDS011;15682;56.742;38.866;2022-08-07T10:35:35;13.5;;;5.8;;
28455;SDS011;15682;56.742;38.866;2022-08-07T10:37:35;23.2;;;8.2;;
28455;SDS011;15682;56.742;38.866;2022-08-07T10:39:38;19.1;;;7.1;;
28455;SDS011;15682;56.742;38.866;2022-08-07T10:41:35;17.8;;;7.2;;
28455;SDS011;15682;56.742;38.866;2022-08-07T10:43:48;18.9;;;6.5;;
28455;SDS011;15682;56.742;38.866;2022-08-07T10:45:37;16.7;;;7.1;;
28455;SDS011;15682;56.742;38.866;2022-08-07T10:47:38;18.5;;;6.9;;
28455;SDS011;15682;56.742;38.866;2022-08-07T10:49:37;17.4;;;6.6;;
28455;SDS011;15682;56.742;38.866;2022-08-07T10:51:38;21.3;;;7.1;;
28455;SDS011;15682;56.742;38.866;2022-08-07T10:53:39;21.1;;;7.0;;
28455;SDS011;15682;56.742;38.866;2022-08-07T10:55:41;16.1;;;6.7;;
28455;SDS011;15682;56.742;38.866;2022-08-07T10:59:50;14.1;;;6.4;;
28455;SDS011;15682;56.742;38.866;2022-08-07T11:01:43;14.2;;;6.4;;
28455;SDS011;15682;56.742;38.866;2022-08-07T11:03:41;12.8;;;6.1;;
28455;SDS011;15682;56.742;38.866;2022-08-07T11:05:41;14.8;;;6.5;;
28455;SDS011;15682;56.742;38.866;2022-08-07T11:07:42;13.6;;;6.8;;
28455;SDS011;15682;56.742;38.866;2022-08-07T11:09:43;14.2;;;5.9;;
28455;SDS011;15682;56.742;38.866;2022-08-07T11:11:43;18.4;;;6.1;;
28455;SDS011;15682;56.742;38.866;2022-08-07T11:13:44;13.3;;;6.6;;
28455;SDS011;15682;56.742;38.866;2022-08-07T11:15:43;11.6;;;6.6;;
28455;SDS011;15682;56.742;38.866;2022-08-07T11:17:45;14.9;;;6.5;;
28455;SDS011;15682;56.742;38.866;2022-08-07T11:19:44;12.7;;;6.4;;
28455;SDS011;15682;56.742;38.866;2022-08-07T11:21:44;15.7;;;6.9;;
28455;SDS011;15682;56.742;38.866;2022-08-07T11:23:46;17.9;;;6.6;;
28455;SDS011;15682;56.742;38.866;2022-08-07T11:25:45;16.7;;;6.7;;
28455;SDS011;15682;56.742;38.866;2022-08-07T11:27:47;13.6;;;6.5;;
28455;SDS011;15682;56.742;38.866;2022-08-07T11:29:47;14.8;;;6.4;;
28455;SDS011;15682;56.742;38.866;2022-08-07T11:31:48;15.4;;;6.0;;
28455;SDS011;15682;56.742;38.866;2022-08-07T11:33:48;13.1;;;6.4;;
28455;SDS011;15682;56.742;38.866;2022-08-07T11:35:50;14.5;;;6.3;;
28455;SDS011;15682;56.742;38.866;2022-08-07T11:37:57;17.0;;;6.5;;
28455;SDS011;15682;56.742;38.866;2022-08-07T11:39:51;14.8;;;6.2;;
28455;SDS011;15682;56.742;38.866;2022-08-07T11:41:49;11.7;;;6.2;;
28455;SDS011;15682;56.742;38.866;2022-08-07T11:46:04;15.4;;;6.8;;
28455;SDS011;15682;56.742;38.866;2022-08-07T11:47:57;13.8;;;6.7;;
28455;SDS011;15682;56.742;38.866;2022-08-07T11:49:55;18.9;;;7.0;;
28455;SDS011;15682;56.742;38.866;2022-08-07T11:51:54;11.9;;;6.2;;
28455;SDS011;15682;56.742;38.866;2022-08-07T11:53:52;16.0;;;6.3;;
28455;SDS011;15682;56.742;38.866;2022-08-07T11:55:56;13.5;;;6.9;;
28455;SDS011;15682;56.742;38.866;2022-08-07T11:57:52;15.0;;;7.1;;
28455;SDS011;15682;56.742;38.866;2022-08-07T11:59:57;13.1;;;7.2;;
28455;SDS011;15682;56.742;38.866;2022-08-07T12:01:52;15.8;;;7.9;;
28455;SDS011;15682;56.742;38.866;2022-08-07T12:03:56;18.6;;;7.4;;
28455;SDS011;15682;56.742;38.866;2022-08-07T12:05:56;16.4;;;8.1;;